Time;durP1;ratioP1;P1;durP2;ratioP2;P2;SDS_P1;SDS_P2;PMS_P1;PMS_P2;Temp;Humidity;BMP_temperature;BMP_pressure;BME280_temperature;BME280_humidity;BME280_pressure;Samples;Min_cycle;Max_cycle;Signal;HPM_P1;HPM_P2
2024/02/27 00:00:20;;;;;;;7.78;3.95;;;7.80;62.50;;;;;;4985903;28;20453;-78
2024/02/27 00:02:46;;;;;;;8.85;4.43;;;7.80;62.40;;;;;;4983219;28;20035;-77
2024/02/27 00:05:12;;;;;;;7.25;4.00;;;7.70;62.30;;;;;;4986134;28;21227;-77
2024/02/27 00:07:38;;;;;;;5.47;3.20;;;7.70;63.20;;;;;;4985082;28;20042;-77
2024/02/27 00:10:04;;;;;;;6.00;3.75;;;7.70;62.50;;;;;;4985928;28;20048;-77
2024/02/27 00:12:31;;;;;;;6.13;3.70;;;7.80;62.50;;;;;;4992353;28;20472;-77
2024/02/27 00:14:57;;;;;;;4.47;3.83;;;7.70;62.50;;;;;;4985486;28;20081;-77
2024/02/27 00:17:23;;;;;;;7.47;3.80;;;7.70;62.50;;;;;;4985768;28;20482;-77
2024/02/27 00:19:49;;;;;;;11.27;3.90;;;7.70;62.50;;;;;;4985246;28;20045;-78
2024/02/27 00:22:16;;;;;;;7.35;3.80;;;7.70;62.60;;;;;;4985954;28;20503;-77
2024/02/27 00:24:42;;;;;;;5.95;4.03;;;7.70;62.70;;;;;;4985405;28;20041;-77
2024/02/27 00:27:08;;;;;;;8.35;4.20;;;7.70;62.70;;;;;;4985707;28;20065;-77
2024/02/27 00:29:34;;;;;;;9.07;4.78;;;7.70;62.80;;;;;;4983774;28;20086;-77
2024/02/27 00:32:00;;;;;;;8.48;4.40;;;7.70;62.50;;;;;;4985721;28;20576;-77
2024/02/27 00:34:26;;;;;;;6.35;3.85;;;7.70;62.50;;;;;;4984354;28;20608;-77
2024/02/27 00:36:52;;;;;;;7.63;4.47;;;7.70;62.40;;;;;;4985929;28;21465;-77
2024/02/27 00:39:18;;;;;;;5.72;3.83;;;7.70;62.50;;;;;;4984271;28;20061;-77
2024/02/27 00:41:48;;;;;;;7.57;4.35;;;7.70;62.30;;;;;;4985101;28;20038;-78
2024/02/27 00:44:14;;;;;;;8.80;3.85;;;7.70;62.30;;;;;;4983266;28;20050;-78
2024/02/27 00:46:42;;;;;;;8.65;4.40;;;7.70;62.30;;;;;;4986193;28;20038;-77
2024/02/27 00:49:08;;;;;;;6.13;4.03;;;7.70;62.40;;;;;;4985851;28;20497;-79
2024/02/27 00:51:34;;;;;;;5.13;3.67;;;7.70;62.10;;;;;;4985153;28;20041;-76
2024/02/27 00:54:00;;;;;;;7.10;4.25;;;7.60;62.10;;;;;;4985090;28;20038;-76
2024/02/27 00:56:26;;;;;;;6.65;4.00;;;7.60;62.00;;;;;;4983794;28;20039;-76
2024/02/27 00:58:52;;;;;;;5.82;3.97;;;7.60;62.10;;;;;;4985610;28;20046;-76
2024/02/27 01:01:18;;;;;;;7.85;4.10;;;7.60;62.20;;;;;;4985746;28;20112;-76
2024/02/27 01:03:45;;;;;;;8.23;4.65;;;7.60;62.20;;;;;;4968854;28;20043;-77
2024/02/27 01:06:12;;;;;;;8.43;4.18;;;7.60;62.20;;;;;;4987566;28;20125;-76
2024/02/27 01:08:38;;;;;;;6.75;3.80;;;7.60;62.10;;;;;;4987557;28;20051;-76
2024/02/27 01:11:04;;;;;;;8.30;4.30;;;7.60;62.30;;;;;;4971206;28;20397;-76
2024/02/27 01:13:30;;;;;;;5.10;4.00;;;7.60;62.20;;;;;;4995026;28;20046;-77
2024/02/27 01:15:56;;;;;;;7.50;4.22;;;7.60;62.20;;;;;;4971000;28;20089;-77
2024/02/27 01:18:22;;;;;;;7.20;4.32;;;7.50;62.10;;;;;;4988311;28;20510;-78
2024/02/27 01:20:48;;;;;;;7.03;3.33;;;7.60;62.30;;;;;;4988731;28;20030;-78
2024/02/27 01:23:14;;;;;;;5.63;3.97;;;7.60;62.30;;;;;;4987652;28;20045;-76
2024/02/27 01:25:40;;;;;;;7.55;4.57;;;7.50;62.30;;;;;;4987403;28;20085;-76
2024/02/27 01:28:06;;;;;;;4.82;3.72;;;7.60;62.10;;;;;;4986592;28;20073;-76
2024/02/27 01:30:32;;;;;;;8.45;4.10;;;7.50;62.40;;;;;;4987615;28;20129;-78
2024/02/27 01:32:58;;;;;;;6.82;4.25;;;7.60;62.40;;;;;;4987287;28;20121;-76
2024/02/27 01:35:24;;;;;;;6.95;4.07;;;7.60;62.40;;;;;;4988414;28;20038;-77
2024/02/27 01:37:50;;;;;;;6.07;4.28;;;7.50;62.50;;;;;;4988407;28;20085;-75
2024/02/27 01:40:16;;;;;;;5.50;4.15;;;7.50;62.40;;;;;;4988423;28;20044;-76
2024/02/27 01:42:45;;;;;;;8.48;3.95;;;7.50;62.40;;;;;;4987623;28;20042;-76
2024/02/27 01:45:18;;;;;;;6.75;3.90;;;7.50;62.60;;;;;;4986617;28;20505;-76
2024/02/27 01:47:46;;;;;;;8.80;3.78;;;7.50;62.70;;;;;;4987095;28;20058;-76
2024/02/27 01:50:15;;;;;;;7.03;4.10;;;7.50;62.70;;;;;;4988033;28;20120;-76
2024/02/27 01:52:41;;;;;;;6.95;3.90;;;7.60;62.80;;;;;;4988110;28;20042;-76
2024/02/27 01:55:07;;;;;;;6.63;3.83;;;7.60;62.80;;;;;;4988041;28;20034;-77
2024/02/27 01:57:34;;;;;;;9.98;4.10;;;7.60;62.70;;;;;;4987355;28;21078;-76
2024/02/27 02:00:00;;;;;;;7.47;3.78;;;7.60;62.70;;;;;;4998284;28;20030;-76
2024/02/27 02:02:34;;;;;;;7.30;3.88;;;7.60;62.90;;;;;;4987665;28;20519;-76
2024/02/27 02:05:01;;;;;;;6.07;3.65;;;7.60;62.70;;;;;;4987911;28;20041;-76
2024/02/27 02:07:27;;;;;;;5.35;3.60;;;7.60;62.80;;;;;;4986726;28;20405;-76
2024/02/27 02:09:53;;;;;;;7.07;4.40;;;7.60;62.90;;;;;;4987773;28;20268;-76
2024/02/27 02:12:19;;;;;;;6.75;3.53;;;7.60;62.70;;;;;;4987754;28;20637;-77
2024/02/27 02:14:48;;;;;;;7.68;4.57;;;7.60;62.70;;;;;;4969833;28;20403;-77
2024/02/27 02:17:14;;;;;;;6.25;3.75;;;7.60;62.90;;;;;;4986646;28;20034;-76
2024/02/27 02:19:40;;;;;;;7.97;3.72;;;7.60;63.00;;;;;;4982493;28;20121;-76
2024/02/27 02:22:06;;;;;;;7.43;4.20;;;7.60;63.10;;;;;;4986262;28;20141;-77
2024/02/27 02:24:35;;;;;;;5.82;3.50;;;7.60;63.10;;;;;;4987361;28;20046;-77
2024/02/27 02:27:02;;;;;;;8.82;4.32;;;7.60;62.90;;;;;;4987041;28;20046;-77
2024/02/27 02:29:28;;;;;;;7.93;3.92;;;7.60;62.90;;;;;;4987539;28;20397;-77
2024/02/27 02:31:55;;;;;;;7.10;3.88;;;7.60;63.10;;;;;;4985866;28;20572;-77
2024/02/27 02:34:21;;;;;;;6.65;4.07;;;7.60;63.20;;;;;;4987327;28;20038;-77
2024/02/27 02:36:47;;;;;;;7.18;4.25;;;7.60;63.10;;;;;;4987378;28;20043;-77
2024/02/27 02:39:13;;;;;;;8.43;4.20;;;7.60;63.00;;;;;;4986225;28;20979;-78
2024/02/27 02:41:39;;;;;;;9.70;4.55;;;7.60;63.00;;;;;;5002061;28;20521;-77
2024/02/27 02:44:05;;;;;;;8.27;4.03;;;7.60;62.90;;;;;;4986787;28;20038;-76
2024/02/27 02:46:31;;;;;;;6.10;4.25;;;7.60;62.90;;;;;;4986194;28;20030;-77
2024/02/27 02:49:01;;;;;;;7.50;4.05;;;7.60;63.10;;;;;;4986367;28;20093;-76
2024/02/27 02:51:32;;;;;;;7.63;4.32;;;7.60;62.80;;;;;;4986475;28;20032;-77
2024/02/27 02:53:58;;;;;;;6.40;3.83;;;7.60;63.20;;;;;;4985313;28;20039;-77
2024/02/27 02:56:24;;;;;;;5.32;3.88;;;7.60;63.10;;;;;;4987018;28;20043;-78
2024/02/27 02:58:50;;;;;;;8.05;4.45;;;7.60;63.10;;;;;;4987134;28;20041;-78
2024/02/27 03:01:16;;;;;;;6.45;3.90;;;7.60;63.30;;;;;;4987094;28;20117;-77
2024/02/27 03:03:42;;;;;;;6.20;3.60;;;7.60;63.30;;;;;;4986423;28;20038;-77
2024/02/27 03:06:09;;;;;;;7.70;4.50;;;7.60;63.20;;;;;;4985773;28;20038;-78
2024/02/27 03:08:35;;;;;;;7.05;4.13;;;7.60;63.10;;;;;;4985445;28;20042;-78
2024/02/27 03:11:01;;;;;;;6.75;4.18;;;7.60;63.20;;;;;;4987149;28;20574;-78
2024/02/27 03:13:27;;;;;;;5.57;3.70;;;7.60;63.20;;;;;;4986096;28;20057;-78
2024/02/27 03:15:53;;;;;;;7.15;3.60;;;7.60;63.20;;;;;;4986761;28;20050;-76
2024/02/27 03:18:18;;;;;;;6.78;3.83;;;7.60;63.10;;;;;;4998605;28;20096;-77
2024/02/27 03:20:44;;;;;;;7.43;4.22;;;7.60;63.10;;;;;;4986698;28;20441;-77
2024/02/27 03:23:10;;;;;;;6.47;3.92;;;7.60;63.10;;;;;;4985824;28;20030;-77
2024/02/27 03:25:36;;;;;;;9.35;4.43;;;7.70;63.70;;;;;;4985638;28;20033;-78
2024/02/27 03:28:03;;;;;;;8.70;4.20;;;7.70;63.00;;;;;;4986019;28;20030;-79
2024/02/27 03:30:29;;;;;;;7.03;3.72;;;7.70;63.00;;;;;;4986589;28;20036;-78
2024/02/27 03:32:55;;;;;;;7.53;3.92;;;7.70;62.80;;;;;;4984922;28;20061;-77
2024/02/27 03:35:22;;;;;;;6.15;4.05;;;7.70;62.90;;;;;;4997876;28;20085;-78
2024/02/27 03:37:48;;;;;;;7.13;3.92;;;7.60;62.80;;;;;;4986272;28;20084;-77
2024/02/27 03:40:14;;;;;;;6.72;4.20;;;7.70;62.70;;;;;;4986204;28;20044;-77
2024/02/27 03:42:40;;;;;;;7.93;3.70;;;7.60;62.90;;;;;;4985520;28;20045;-78
2024/02/27 03:45:08;;;;;;;6.82;3.78;;;7.70;63.00;;;;;;4986403;28;20038;-79
2024/02/27 03:47:34;;;;;;;5.00;3.47;;;7.70;63.00;;;;;;4986057;28;20647;-79
2024/02/27 03:50:00;;;;;;;5.40;3.63;;;7.70;62.90;;;;;;4968737;28;20373;-79
2024/02/27 03:52:26;;;;;;;8.18;3.80;;;7.70;62.70;;;;;;4985319;28;20038;-78
2024/02/27 03:54:52;;;;;;;6.35;4.35;;;7.70;62.90;;;;;;4985645;28;20359;-78
2024/02/27 03:57:18;;;;;;;9.02;4.03;;;7.70;62.90;;;;;;4986114;28;20046;-78
2024/02/27 03:59:44;;;;;;;7.88;4.20;;;7.70;62.70;;;;;;4986161;28;20030;-78
2024/02/27 04:02:10;;;;;;;7.60;4.10;;;7.70;62.70;;;;;;4986711;28;20035;-78
2024/02/27 04:04:36;;;;;;;8.43;4.20;;;7.70;63.10;;;;;;4968125;28;20496;-77
2024/02/27 04:07:02;;;;;;;6.43;4.10;;;7.70;62.40;;;;;;4991411;28;20145;-78
2024/02/27 04:09:28;;;;;;;6.47;3.88;;;7.70;62.50;;;;;;4968282;28;20066;-78
2024/02/27 04:11:54;;;;;;;6.40;4.22;;;7.70;62.50;;;;;;4985191;28;20121;-78
2024/02/27 04:14:20;;;;;;;8.70;3.70;;;7.70;62.70;;;;;;4985137;28;20034;-75
2024/02/27 04:16:47;;;;;;;7.20;3.90;;;7.70;62.70;;;;;;4986416;28;20044;-77
2024/02/27 04:19:13;;;;;;;9.75;4.05;;;7.70;62.70;;;;;;4984602;28;20050;-77
2024/02/27 04:21:39;;;;;;;5.90;3.83;;;7.70;62.90;;;;;;4985493;28;20035;-77
2024/02/27 04:24:05;;;;;;;9.20;4.22;;;7.70;63.00;;;;;;4983680;28;20445;-76
2024/02/27 04:26:31;;;;;;;8.20;4.00;;;7.70;63.00;;;;;;4984477;28;20089;-77
2024/02/27 04:28:57;;;;;;;6.80;4.50;;;7.70;63.00;;;;;;4984908;28;20038;-75
2024/02/27 04:31:23;;;;;;;8.85;4.10;;;7.70;63.00;;;;;;4986089;28;20022;-77
2024/02/27 04:33:49;;;;;;;8.65;4.53;;;7.70;62.80;;;;;;4984653;28;20038;-76
2024/02/27 04:36:15;;;;;;;9.52;3.88;;;7.80;62.90;;;;;;4983592;28;20065;-80
2024/02/27 04:38:42;;;;;;;6.72;4.88;;;7.80;62.60;;;;;;4978848;28;20664;-81
2024/02/27 04:41:08;;;;;;;6.50;3.90;;;7.70;62.40;;;;;;4991088;28;20026;-90
2024/02/27 04:43:34;;;;;;;7.25;3.90;;;7.80;62.60;;;;;;4960491;28;20038;-90
2024/02/27 04:46:00;;;;;;;8.85;4.93;;;7.80;62.50;;;;;;4991483;28;20044;-88
2024/02/27 04:48:26;;;;;;;6.95;3.88;;;7.80;62.30;;;;;;4979015;28;20066;-86
2024/02/27 04:50:52;;;;;;;6.80;4.20;;;7.80;62.20;;;;;;5007509;28;20580;-87
2024/02/27 04:53:18;;;;;;;8.55;4.22;;;7.80;62.20;;;;;;4990695;28;20034;-83
2024/02/27 04:55:44;;;;;;;8.75;4.00;;;7.80;62.70;;;;;;4990009;28;20030;-88
2024/02/27 04:58:10;;;;;;;10.38;5.22;;;7.80;62.40;;;;;;4990453;28;20117;-86
2024/02/27 05:00:36;;;;;;;6.60;4.47;;;7.80;62.30;;;;;;4971257;28;20032;-82
2024/02/27 05:03:03;;;;;;;8.48;4.68;;;7.80;62.50;;;;;;4982997;28;20122;-86
2024/02/27 05:05:29;;;;;;;9.90;4.40;;;7.80;62.70;;;;;;4988165;28;20045;-86
2024/02/27 05:07:55;;;;;;;9.63;4.65;;;7.80;63.10;;;;;;4987803;28;20109;-86
2024/02/27 05:10:21;;;;;;;8.27;4.85;;;7.80;63.30;;;;;;4990707;28;20085;-86
2024/02/27 05:12:47;;;;;;;8.52;4.88;;;7.80;63.60;;;;;;4987792;28;20126;-86
2024/02/27 05:15:13;;;;;;;7.32;4.80;;;7.80;64.20;;;;;;4988762;28;20471;-85
2024/02/27 05:17:39;;;;;;;13.27;5.03;;;7.80;64.30;;;;;;4988064;28;20054;-84
2024/02/27 05:20:05;;;;;;;8.75;5.05;;;7.80;64.40;;;;;;4989132;28;20440;-85
2024/02/27 05:22:31;;;;;;;8.45;4.95;;;7.80;64.40;;;;;;4988211;28;20104;-84
2024/02/27 05:24:57;;;;;;;7.28;4.68;;;7.90;64.30;;;;;;4971376;28;20540;-84
2024/02/27 05:27:24;;;;;;;10.50;5.00;;;7.90;64.40;;;;;;4987765;28;20034;-84
2024/02/27 05:29:50;;;;;;;9.43;5.05;;;7.90;64.60;;;;;;4990925;28;20069;-85
2024/02/27 05:32:35;;;;;;;11.35;5.40;;;7.90;64.90;;;;;;4987892;28;20030;-84
2024/02/27 05:35:01;;;;;;;8.13;4.60;;;7.80;64.90;;;;;;4972352;28;20513;-84
2024/02/27 05:37:27;;;;;;;15.40;5.40;;;7.90;65.20;;;;;;4972843;28;20158;-84
2024/02/27 05:39:53;;;;;;;8.88;4.55;;;7.90;65.50;;;;;;4987807;28;20670;-85
2024/02/27 05:42:19;;;;;;;8.38;4.97;;;7.90;65.60;;;;;;4989816;28;20041;-85
2024/02/27 05:44:45;;;;;;;7.63;4.57;;;7.90;65.70;;;;;;4988006;28;20030;-84
2024/02/27 05:47:11;;;;;;;10.48;5.50;;;7.90;65.70;;;;;;4955525;28;20117;-85
2024/02/27 05:49:37;;;;;;;8.63;5.32;;;7.90;65.60;;;;;;4962607;28;20507;-83
2024/02/27 05:52:03;;;;;;;9.55;5.60;;;7.90;65.90;;;;;;4988163;28;20038;-82
2024/02/27 05:54:29;;;;;;;10.50;5.65;;;7.90;65.70;;;;;;4988269;28;20124;-81
2024/02/27 05:56:55;;;;;;;8.63;5.03;;;8.00;65.50;;;;;;5003191;28;20065;-79
2024/02/27 05:59:21;;;;;;;9.95;5.13;;;8.00;65.50;;;;;;4988356;28;20372;-77
2024/02/27 06:01:47;;;;;;;7.45;4.72;;;8.00;65.40;;;;;;4988198;28;20031;-76
2024/02/27 06:04:13;;;;;;;9.80;4.82;;;8.00;65.40;;;;;;4988013;28;20034;-78
2024/02/27 06:06:39;;;;;;;9.02;5.05;;;8.00;65.50;;;;;;4986873;28;20504;-76
2024/02/27 06:09:07;;;;;;;9.23;4.85;;;8.00;65.30;;;;;;4994910;28;20092;-77
2024/02/27 06:11:34;;;;;;;7.72;4.35;;;8.00;65.30;;;;;;4987745;28;20308;-79
2024/02/27 06:14:02;;;;;;;14.75;4.65;;;8.00;65.20;;;;;;4987093;28;20472;-78
2024/02/27 06:16:28;;;;;;;7.55;4.18;;;8.00;65.20;;;;;;4985102;28;20034;-77
2024/02/27 06:18:55;;;;;;;6.65;3.95;;;8.10;65.10;;;;;;4985455;28;20640;-79
2024/02/27 06:24:06;;;;;;;8.88;4.65;;;8.10;65.20;;;;;;4986690;28;20129;-81
2024/02/27 06:26:32;;;;;;;6.85;4.38;;;8.10;65.40;;;;;;4967359;28;20440;-82
2024/02/27 06:28:58;;;;;;;8.23;4.63;;;8.10;65.10;;;;;;4986171;28;20499;-79
2024/02/27 06:31:25;;;;;;;9.07;4.55;;;8.10;65.10;;;;;;4986841;28;20611;-79
2024/02/27 06:33:51;;;;;;;11.20;4.43;;;8.10;65.10;;;;;;4985283;28;20042;-79
2024/02/27 06:36:16;;;;;;;6.90;4.32;;;8.10;64.90;;;;;;4985853;28;20030;-79
2024/02/27 06:38:43;;;;;;;6.53;4.63;;;8.20;64.90;;;;;;4986929;28;20035;-79
2024/02/27 06:41:09;;;;;;;8.50;4.65;;;8.20;64.80;;;;;;4987330;28;20080;-79
2024/02/27 06:43:35;;;;;;;9.63;4.18;;;8.20;64.80;;;;;;4987652;28;20034;-79
2024/02/27 06:46:01;;;;;;;6.10;4.32;;;8.20;64.60;;;;;;4987351;28;20035;-79
2024/02/27 06:48:28;;;;;;;7.47;4.10;;;8.20;64.50;;;;;;4986899;28;20133;-77
2024/02/27 06:50:55;;;;;;;7.03;4.85;;;8.30;64.50;;;;;;4985156;28;20117;-77
2024/02/27 06:53:23;;;;;;;6.43;4.50;;;8.30;64.30;;;;;;4984749;28;20034;-77
2024/02/27 06:55:49;;;;;;;6.43;4.03;;;8.30;64.30;;;;;;4986045;28;20125;-77
2024/02/27 06:58:16;;;;;;;6.63;4.13;;;8.30;64.30;;;;;;4967298;28;20050;-77
2024/02/27 07:00:42;;;;;;;7.72;4.88;;;8.30;64.30;;;;;;4984597;28;20054;-77
2024/02/27 07:03:08;;;;;;;6.20;4.10;;;8.30;64.40;;;;;;4984210;28;20065;-77
2024/02/27 07:05:34;;;;;;;6.85;4.72;;;8.40;64.40;;;;;;4982495;28;20042;-78
2024/02/27 07:08:00;;;;;;;9.85;4.60;;;8.40;64.20;;;;;;4983179;28;20030;-78
2024/02/27 07:10:26;;;;;;;9.65;5.05;;;8.40;64.20;;;;;;4985291;28;20033;-78
2024/02/27 07:12:52;;;;;;;6.45;4.30;;;8.40;64.10;;;;;;4982826;28;20034;-78
2024/02/27 07:15:19;;;;;;;8.70;4.93;;;8.50;64.20;;;;;;4984786;28;20035;-78
2024/02/27 07:17:45;;;;;;;8.43;5.00;;;8.50;64.10;;;;;;4984801;28;20050;-78
2024/02/27 07:20:12;;;;;;;7.13;3.95;;;8.50;64.00;;;;;;4983009;28;20038;-79
2024/02/27 07:22:38;;;;;;;5.75;3.90;;;8.50;64.00;;;;;;4984281;28;20085;-78
2024/02/27 07:25:05;;;;;;;5.45;4.20;;;8.50;63.90;;;;;;4966936;28;20038;-78
2024/02/27 07:27:31;;;;;;;6.15;4.20;;;8.60;63.90;;;;;;4983999;28;20034;-78
2024/02/27 07:29:58;;;;;;;7.78;3.83;;;8.60;63.70;;;;;;4996134;28;20121;-78
2024/02/27 07:32:24;;;;;;;6.97;4.15;;;8.60;63.60;;;;;;4985167;28;20508;-78
2024/02/27 07:34:50;;;;;;;5.78;4.40;;;8.60;63.60;;;;;;4984588;28;20040;-78
2024/02/27 07:37:16;;;;;;;6.15;4.43;;;8.70;63.50;;;;;;4985227;28;20392;-78
2024/02/27 07:39:45;;;;;;;6.60;4.28;;;8.70;63.50;;;;;;4985221;28;20045;-78
2024/02/27 07:42:11;;;;;;;7.55;5.07;;;8.70;63.40;;;;;;4984353;28;20058;-78
2024/02/27 07:44:37;;;;;;;7.85;4.90;;;8.70;63.30;;;;;;4983330;28;20505;-78
2024/02/27 07:47:03;;;;;;;7.80;5.32;;;8.70;63.30;;;;;;4984780;28;20121;-78
2024/02/27 07:49:29;;;;;;;7.95;4.90;;;8.80;63.30;;;;;;4984498;28;20044;-78
2024/02/27 07:51:55;;;;;;;6.40;4.47;;;8.80;63.40;;;;;;4977774;28;20041;-78
2024/02/27 07:54:21;;;;;;;8.93;4.53;;;8.80;63.30;;;;;;4983770;28;20587;-78
2024/02/27 07:56:47;;;;;;;7.45;4.82;;;8.90;63.20;;;;;;4984238;28;20036;-79
2024/02/27 07:59:14;;;;;;;8.63;5.18;;;8.90;63.20;;;;;;4983445;28;20053;-79
2024/02/27 08:01:40;;;;;;;8.13;4.68;;;8.90;63.10;;;;;;4985091;28;20070;-79
2024/02/27 08:04:06;;;;;;;6.65;4.75;;;9.00;63.20;;;;;;4983968;28;20461;-80
2024/02/27 08:06:32;;;;;;;6.40;4.35;;;9.00;63.20;;;;;;4983196;28;20045;-80
2024/02/27 08:08:58;;;;;;;7.57;4.72;;;9.10;63.10;;;;;;4986438;28;20066;-79
2024/02/27 08:11:26;;;;;;;8.27;4.93;;;9.10;63.20;;;;;;4985015;28;20080;-80
2024/02/27 08:13:52;;;;;;;7.22;4.32;;;9.10;63.10;;;;;;4986914;28;20041;-77
2024/02/27 08:16:18;;;;;;;10.40;4.93;;;9.10;63.00;;;;;;4987986;28;20037;-79
2024/02/27 08:19:04;;;;;;;7.60;5.05;;;9.20;63.20;;;;;;4987819;28;20513;-79
2024/02/27 08:21:39;;;;;;;9.13;4.78;;;9.20;63.00;;;;;;4986760;28;20030;-78
2024/02/27 08:24:08;;;;;;;6.95;4.15;;;9.20;63.00;;;;;;4985705;28;20027;-79
2024/02/27 08:26:34;;;;;;;8.00;4.18;;;9.30;63.00;;;;;;4985651;28;20117;-78
2024/02/27 08:29:00;;;;;;;7.63;4.40;;;9.30;63.00;;;;;;4985928;28;20121;-78
2024/02/27 08:31:27;;;;;;;7.75;4.93;;;9.30;63.00;;;;;;4988234;28;20033;-79
2024/02/27 08:33:54;;;;;;;7.43;4.75;;;9.30;62.90;;;;;;4986814;28;20030;-78
2024/02/27 08:36:20;;;;;;;6.88;4.10;;;9.30;63.70;;;;;;4986110;28;20049;-78
2024/02/27 08:38:46;;;;;;;6.38;4.10;;;9.40;63.00;;;;;;4987561;28;20034;-79
2024/02/27 08:41:13;;;;;;;8.18;4.20;;;9.40;63.00;;;;;;4986032;28;20030;-78
2024/02/27 08:43:42;;;;;;;8.27;4.53;;;9.40;63.00;;;;;;4988197;28;20031;-80
2024/02/27 08:46:16;;;;;;;9.15;4.68;;;9.50;63.00;;;;;;4988059;28;20041;-80
2024/02/27 08:48:42;;;;;;;8.60;4.35;;;9.50;63.00;;;;;;4988209;28;20129;-79
2024/02/27 08:51:08;;;;;;;10.85;4.80;;;9.50;63.00;;;;;;4986955;28;20167;-79
2024/02/27 08:53:34;;;;;;;8.20;4.68;;;9.50;62.80;;;;;;4985291;28;20580;-78
2024/02/27 08:56:00;;;;;;;8.98;4.38;;;9.60;62.80;;;;;;4986090;28;20441;-79
2024/02/27 08:58:26;;;;;;;8.10;4.60;;;9.60;62.80;;;;;;4987104;28;20096;-78
2024/02/27 09:00:52;;;;;;;7.18;4.22;;;9.60;62.60;;;;;;4987355;28;20444;-78
2024/02/27 09:03:18;;;;;;;6.90;4.20;;;9.70;62.60;;;;;;4987466;28;20417;-81
2024/02/27 09:05:46;;;;;;;7.57;4.25;;;9.70;62.50;;;;;;4987785;28;20046;-79
2024/02/27 09:08:14;;;;;;;10.95;5.07;;;9.70;62.40;;;;;;4983841;28;20496;-79
2024/02/27 09:10:43;;;;;;;9.90;5.22;;;9.70;62.40;;;;;;4987905;28;20042;-78
2024/02/27 09:13:08;;;;;;;8.57;4.43;;;9.80;62.30;;;;;;4986447;28;20097;-78
2024/02/27 09:15:34;;;;;;;7.90;4.78;;;9.80;62.20;;;;;;4987274;28;20362;-78
2024/02/27 09:18:00;;;;;;;10.15;4.97;;;9.80;62.10;;;;;;4987014;28;20061;-78
2024/02/27 09:20:30;;;;;;;7.53;4.93;;;9.80;62.00;;;;;;4986819;28;20493;-78
2024/02/27 09:22:57;;;;;;;10.05;4.90;;;9.90;61.90;;;;;;4985853;28;20466;-79
2024/02/27 09:25:23;;;;;;;8.25;4.60;;;9.90;61.80;;;;;;4986972;28;20209;-81
2024/02/27 09:27:49;;;;;;;7.75;4.57;;;9.90;61.70;;;;;;4986693;28;20710;-79
2024/02/27 09:30:15;;;;;;;10.07;5.30;;;9.90;61.70;;;;;;4986549;28;20112;-79
2024/02/27 09:32:41;;;;;;;7.57;4.95;;;10.00;61.70;;;;;;4969295;28;20038;-79
2024/02/27 09:35:07;;;;;;;6.10;4.65;;;10.00;61.70;;;;;;4969104;28;20809;-79
2024/02/27 09:37:36;;;;;;;7.45;5.18;;;10.00;61.70;;;;;;4985533;28;20035;-79
2024/02/27 09:40:02;;;;;;;6.90;4.38;;;10.00;61.50;;;;;;4992644;28;20050;-78
2024/02/27 09:42:33;;;;;;;9.07;4.95;;;10.00;61.50;;;;;;4968498;28;20099;-81
2024/02/27 09:44:59;;;;;;;8.52;5.18;;;10.00;61.40;;;;;;4953553;28;20041;-79
2024/02/27 09:47:26;;;;;;;7.60;4.85;;;10.00;61.40;;;;;;4969413;28;20043;-79
2024/02/27 09:49:52;;;;;;;9.98;4.75;;;10.10;61.40;;;;;;4985585;28;20046;-79
2024/02/27 09:52:21;;;;;;;8.50;4.65;;;10.10;61.40;;;;;;4987405;28;20117;-79
2024/02/27 09:54:48;;;;;;;7.53;4.88;;;10.10;61.20;;;;;;4986116;28;20046;-79
2024/02/27 09:57:15;;;;;;;7.32;4.75;;;10.10;61.30;;;;;;4986597;28;20785;-78
2024/02/27 09:59:41;;;;;;;6.88;4.70;;;10.10;61.20;;;;;;4969203;28;20041;-79
2024/02/27 10:02:15;;;;;;;9.48;5.03;;;10.10;61.80;;;;;;4986945;28;20030;-78
2024/02/27 10:04:42;;;;;;;8.23;4.78;;;10.10;61.10;;;;;;4987354;28;20062;-78
2024/02/27 10:07:11;;;;;;;7.30;4.50;;;10.10;61.10;;;;;;4987885;28;20536;-78
2024/02/27 10:09:45;;;;;;;7.63;4.75;;;10.10;61.20;;;;;;4986718;28;20112;-79
2024/02/27 10:12:12;;;;;;;7.10;4.70;;;10.10;61.30;;;;;;4988264;28;20535;-78
2024/02/27 10:14:39;;;;;;;8.18;4.47;;;10.10;61.20;;;;;;4988055;28;20105;-78
2024/02/27 10:17:09;;;;;;;6.85;4.47;;;10.10;61.10;;;;;;4986566;28;20492;-80
2024/02/27 10:19:36;;;;;;;6.55;4.38;;;10.10;61.00;;;;;;4986478;28;20129;-80
2024/02/27 10:22:03;;;;;;;6.90;4.35;;;10.20;61.00;;;;;;4987832;28;20034;-80
2024/02/27 10:24:30;;;;;;;6.85;4.43;;;10.20;61.00;;;;;;5002402;28;20066;-78
2024/02/27 10:29:45;;;;;;;6.20;4.43;;;10.20;61.00;;;;;;4977465;28;20161;-77
2024/02/27 10:32:11;;;;;;;6.90;4.32;;;10.10;60.80;;;;;;4962658;28;20157;-77
2024/02/27 10:34:41;;;;;;;6.45;4.15;;;10.10;60.80;;;;;;4986949;28;20036;-78
2024/02/27 10:37:09;;;;;;;6.82;4.60;;;10.10;60.70;;;;;;4985933;28;20038;-81
2024/02/27 10:39:35;;;;;;;6.53;4.28;;;10.10;60.80;;;;;;4986863;28;20038;-80
2024/02/27 10:42:01;;;;;;;8.63;4.65;;;10.20;61.00;;;;;;4986174;28;20050;-80
2024/02/27 10:44:28;;;;;;;8.15;4.45;;;10.20;60.80;;;;;;4987081;28;20035;-80
2024/02/27 10:46:55;;;;;;;6.05;3.97;;;10.10;61.00;;;;;;4985610;28;20390;-80
2024/02/27 10:49:22;;;;;;;7.72;4.45;;;10.10;60.90;;;;;;4987746;28;20030;-80
2024/02/27 10:51:48;;;;;;;7.60;4.38;;;10.10;60.60;;;;;;4986800;28;20096;-80
2024/02/27 10:54:18;;;;;;;8.23;4.30;;;10.10;60.70;;;;;;4985140;28;20046;-77
2024/02/27 10:56:48;;;;;;;7.82;4.85;;;10.20;60.50;;;;;;4986394;28;20114;-78
2024/02/27 10:59:14;;;;;;;6.38;4.60;;;10.10;60.40;;;;;;4986645;28;20128;-80
2024/02/27 11:01:43;;;;;;;6.05;4.40;;;10.10;60.40;;;;;;4987518;28;20526;-78
2024/02/27 11:04:21;;;;;;;9.30;4.53;;;10.10;60.40;;;;;;4986654;28;20030;-78
2024/02/27 11:06:50;;;;;;;6.78;4.47;;;10.10;60.40;;;;;;4986819;28;20096;-79
2024/02/27 11:09:25;;;;;;;5.53;4.00;;;10.20;60.50;;;;;;4998256;28;20074;-80
2024/02/27 11:11:55;;;;;;;7.22;4.13;;;10.20;60.50;;;;;;4985739;28;20053;-79
2024/02/27 11:14:24;;;;;;;6.35;4.47;;;10.20;60.50;;;;;;4986560;28;20413;-79
2024/02/27 11:16:59;;;;;;;6.93;4.70;;;10.20;60.40;;;;;;4986982;28;21444;-79
2024/02/27 11:19:28;;;;;;;8.20;4.47;;;10.20;60.40;;;;;;4986762;28;20050;-79
2024/02/27 11:21:54;;;;;;;7.30;4.55;;;10.20;60.20;;;;;;4986303;28;20046;-79
2024/02/27 11:24:20;;;;;;;7.65;4.57;;;10.20;60.20;;;;;;4981901;28;20057;-79
2024/02/27 11:26:47;;;;;;;6.97;4.20;;;10.20;60.20;;;;;;4993023;28;20124;-81
2024/02/27 11:29:14;;;;;;;5.78;4.40;;;10.20;60.20;;;;;;4986211;28;20081;-80
2024/02/27 11:31:41;;;;;;;6.32;4.50;;;10.20;60.30;;;;;;4986631;28;20053;-79
2024/02/27 11:34:07;;;;;;;9.82;4.85;;;10.20;60.10;;;;;;4984964;28;20038;-78
2024/02/27 11:36:34;;;;;;;7.30;5.03;;;10.30;60.30;;;;;;4985095;28;20472;-78
2024/02/27 11:39:00;;;;;;;11.20;5.30;;;10.30;60.30;;;;;;4987073;28;20079;-78
2024/02/27 11:41:27;;;;;;;7.75;4.88;;;10.20;60.10;;;;;;4986512;28;20092;-79
2024/02/27 11:43:57;;;;;;;9.02;5.80;;;10.30;60.00;;;;;;4985638;28;20179;-78
2024/02/27 11:46:29;;;;;;;7.95;5.53;;;10.30;59.90;;;;;;4996788;28;20030;-78
2024/02/27 11:48:57;;;;;;;9.35;5.90;;;10.30;60.00;;;;;;4986484;28;20381;-80
2024/02/27 11:51:36;;;;;;;9.27;5.70;;;10.30;60.00;;;;;;4953958;28;20035;-80
2024/02/27 11:54:08;;;;;;;9.43;5.65;;;10.30;60.00;;;;;;4984498;28;20137;-82
2024/02/27 11:56:40;;;;;;;9.60;5.85;;;10.30;60.00;;;;;;4998331;28;20453;-80
2024/02/27 11:59:10;;;;;;;8.20;4.97;;;10.30;59.90;;;;;;4982486;28;20030;-82
2024/02/27 12:01:36;;;;;;;9.65;5.35;;;10.30;59.90;;;;;;4984938;28;20121;-80
2024/02/27 12:04:08;;;;;;;7.53;4.85;;;10.30;59.70;;;;;;4984346;28;20141;-77
2024/02/27 12:06:34;;;;;;;7.60;5.00;;;10.40;60.10;;;;;;4982203;28;20045;-78
2024/02/27 12:09:00;;;;;;;8.82;5.25;;;10.40;60.00;;;;;;4981001;28;20046;-77
2024/02/27 12:11:27;;;;;;;8.20;4.68;;;10.40;59.80;;;;;;4982244;28;20038;-76
2024/02/27 12:13:53;;;;;;;7.75;5.10;;;10.40;59.80;;;;;;4981746;28;20045;-76
2024/02/27 12:16:24;;;;;;;7.95;5.50;;;10.40;59.90;;;;;;4982501;28;20557;-79
2024/02/27 12:18:52;;;;;;;6.65;4.72;;;10.50;60.00;;;;;;4964825;28;20053;-76
2024/02/27 12:21:31;;;;;;;11.43;5.22;;;10.50;60.10;;;;;;4982173;28;20707;-76
2024/02/27 12:24:17;;;;;;;8.05;4.68;;;10.50;60.20;;;;;;4981904;28;20041;-75
2024/02/27 12:26:44;;;;;;;9.40;5.07;;;10.50;60.10;;;;;;4982064;28;20542;-75
2024/02/27 12:29:10;;;;;;;8.38;4.50;;;10.50;60.00;;;;;;4981916;28;20042;-75
2024/02/27 12:31:37;;;;;;;8.23;4.63;;;10.50;60.20;;;;;;4982375;28;20036;-77
2024/02/27 12:34:07;;;;;;;7.13;4.80;;;10.50;60.30;;;;;;4981919;28;20482;-77
2024/02/27 12:36:34;;;;;;;6.68;4.43;;;10.50;60.30;;;;;;4981934;28;20597;-78
2024/02/27 12:39:00;;;;;;;6.90;4.65;;;10.50;60.50;;;;;;4989092;28;20042;-76
2024/02/27 12:41:27;;;;;;;7.43;4.50;;;10.50;60.70;;;;;;4982336;28;20097;-77
2024/02/27 12:43:53;;;;;;;6.32;4.47;;;10.50;60.80;;;;;;4982097;28;20790;-77
2024/02/27 12:46:21;;;;;;;8.98;5.35;;;10.50;61.00;;;;;;4981698;28;20030;-78
2024/02/27 12:48:48;;;;;;;9.05;4.60;;;10.50;61.10;;;;;;4981210;28;20085;-77
2024/02/27 12:51:15;;;;;;;6.18;4.47;;;10.50;61.20;;;;;;4980373;28;20030;-77
2024/02/27 12:57:06;;;;;;;9.52;4.50;;;10.50;61.00;;;;;;4995143;28;20120;-80
2024/02/27 12:59:33;;;;;;;6.53;4.40;;;10.50;61.40;;;;;;4983433;28;20038;-77